Time;durP1;ratioP1;P1;durP2;ratioP2;P2;SDS_P1;SDS_P2;PMS_P1;PMS_P2;Temp;Humidity;BMP_temperature;BMP_pressure;BME280_temperature;BME280_humidity;BME280_pressure;Samples;Min_cycle;Max_cycle;Signal;HPM_P1;HPM_P2
2022/07/28 00:02:22;;;;;;;2.40;0.73;;;18.60;42.30;;;;;;5001377;28;20502;-42
2022/07/28 00:04:51;;;;;;;2.28;0.80;;;18.60;42.30;;;;;;5002869;28;20061;-45
2022/07/28 00:07:19;;;;;;;1.33;0.70;;;18.60;42.30;;;;;;5001805;28;20062;-45
2022/07/28 00:09:46;;;;;;;1.58;0.73;;;18.60;42.40;;;;;;5000450;28;20069;-45
2022/07/28 00:12:14;;;;;;;2.90;0.77;;;18.60;42.50;;;;;;5000448;28;20569;-43
2022/07/28 00:14:41;;;;;;;3.85;0.75;;;18.50;42.70;;;;;;4999171;28;20050;-43
2022/07/28 00:17:09;;;;;;;0.65;0.55;;;18.50;42.70;;;;;;5002128;28;20062;-48
2022/07/28 00:19:36;;;;;;;1.40;0.70;;;18.50;42.60;;;;;;5000876;28;20064;-47
2022/07/28 00:22:06;;;;;;;2.55;0.70;;;18.50;42.70;;;;;;5001821;28;20069;-43
2022/07/28 00:24:34;;;;;;;2.90;0.98;;;18.50;42.80;;;;;;4998961;28;20413;-45
2022/07/28 00:27:01;;;;;;;2.35;0.95;;;18.50;42.80;;;;;;5001931;28;20046;-44
2022/07/28 00:29:29;;;;;;;2.15;0.82;;;18.50;42.80;;;;;;5000644;28;20054;-43
2022/07/28 00:31:56;;;;;;;5.53;1.02;;;18.50;42.80;;;;;;5000423;28;20080;-41
2022/07/28 00:34:24;;;;;;;3.83;1.48;;;18.50;43.40;;;;;;5000328;28;20054;-44
2022/07/28 00:36:51;;;;;;;3.53;0.90;;;18.40;42.80;;;;;;5002412;28;20414;-44
2022/07/28 00:39:20;;;;;;;2.08;0.77;;;18.40;42.80;;;;;;5002138;28;20058;-42
2022/07/28 00:41:47;;;;;;;1.55;0.90;;;18.40;42.90;;;;;;5001258;28;20065;-46
2022/07/28 00:44:15;;;;;;;1.85;0.80;;;18.40;42.70;;;;;;5003063;28;20061;-42
2022/07/28 00:46:43;;;;;;;1.40;0.80;;;18.40;42.70;;;;;;5002668;28;20521;-42
2022/07/28 00:49:13;;;;;;;2.38;0.80;;;18.40;42.70;;;;;;5006141;28;20054;-48
2022/07/28 00:51:40;;;;;;;1.45;0.75;;;18.40;42.80;;;;;;5003674;28;20053;-46
2022/07/28 00:54:08;;;;;;;1.30;0.60;;;18.40;42.80;;;;;;5005030;28;20517;-43
2022/07/28 00:56:38;;;;;;;1.75;0.70;;;18.40;42.70;;;;;;5006790;28;20054;-46
2022/07/28 00:59:05;;;;;;;2.97;0.90;;;18.40;42.70;;;;;;5002403;28;20061;-45
2022/07/28 01:01:33;;;;;;;2.45;0.80;;;18.40;42.70;;;;;;5004077;28;20593;-43
2022/07/28 01:04:02;;;;;;;1.60;0.60;;;18.40;42.70;;;;;;5006886;28;20054;-44
2022/07/28 01:06:40;;;;;;;3.70;0.90;;;18.40;42.70;;;;;;5003730;28;20050;-43
2022/07/28 01:09:19;;;;;;;0.98;0.60;;;18.40;42.70;;;;;;5006241;28;20104;-42
2022/07/28 01:12:00;;;;;;;1.30;0.75;;;18.40;42.80;;;;;;5002946;28;21776;-47
2022/07/28 01:14:34;;;;;;;2.15;0.93;;;18.30;42.90;;;;;;5002868;28;20053;-46
2022/07/28 01:17:03;;;;;;;;;;;18.40;42.80;;;;;;5005121;28;20490;-43
2022/07/28 01:19:39;;;;;;;1.30;0.60;;;18.40;42.80;;;;;;5004199;28;19921;-44
2022/07/28 01:22:11;;;;;;;1.02;0.50;;;18.40;42.80;;;;;;5002852;28;20053;-43
2022/07/28 01:24:51;;;;;;;4.40;0.80;;;18.40;43.00;;;;;;5004712;28;20486;-42
2022/07/28 01:27:37;;;;;;;2.85;1.40;;;18.40;43.10;;;;;;5003775;28;20064;-44
2022/07/28 01:30:20;;;;;;;2.97;0.90;;;18.30;43.10;;;;;;4999643;28;20053;-45
2022/07/28 01:33:01;;;;;;;2.00;0.77;;;18.30;43.10;;;;;;5006286;28;20410;-46
2022/07/28 01:35:32;;;;;;;1.67;0.70;;;18.30;43.20;;;;;;5005334;28;20069;-44
2022/07/28 01:38:05;;;;;;;1.92;0.80;;;18.30;43.30;;;;;;5002946;28;21161;-45
2022/07/28 01:40:35;;;;;;;1.02;0.50;;;18.20;43.30;;;;;;4998997;28;20057;-43
2022/07/28 01:43:07;;;;;;;2.05;0.80;;;18.20;43.40;;;;;;5002744;28;20521;-45
2022/07/28 01:45:38;;;;;;;2.03;0.57;;;18.20;43.50;;;;;;5003184;28;20057;-43
2022/07/28 01:48:07;;;;;;;2.42;0.90;;;18.10;43.50;;;;;;5005366;28;20406;-43
2022/07/28 01:53:16;;;;;;;2.15;0.73;;;18.10;43.50;;;;;;5008440;28;20066;-45
2022/07/28 01:55:45;;;;;;;3.15;0.77;;;18.00;43.50;;;;;;5003926;28;20395;-43
2022/07/28 01:58:13;;;;;;;2.42;0.93;;;18.00;43.70;;;;;;5003056;28;20054;-44
2022/07/28 02:00:44;;;;;;;4.20;0.82;;;18.00;43.80;;;;;;4999722;28;20054;-42
2022/07/28 02:03:12;;;;;;;2.15;1.13;;;17.90;43.90;;;;;;5005899;28;20061;-43
2022/07/28 02:05:42;;;;;;;2.45;1.00;;;17.90;44.00;;;;;;5003521;28;20057;-44
2022/07/28 02:08:11;;;;;;;2.22;0.75;;;17.80;43.90;;;;;;5003465;28;20080;-43
2022/07/28 02:10:42;;;;;;;2.53;0.80;;;17.80;44.00;;;;;;5003734;28;20426;-42
2022/07/28 02:13:11;;;;;;;3.97;0.70;;;17.80;44.10;;;;;;5000113;28;20050;-43
2022/07/28 02:15:40;;;;;;;1.15;0.70;;;17.80;44.10;;;;;;5002659;28;20069;-45
2022/07/28 02:21:32;;;;;;;4.55;1.10;;;17.70;44.30;;;;;;5002375;28;20397;-45
2022/07/28 02:24:00;;;;;;;5.57;1.90;;;17.70;44.20;;;;;;5003311;28;20065;-42
2022/07/28 02:26:32;;;;;;;3.80;0.90;;;17.60;44.10;;;;;;5002731;28;20057;-45
2022/07/28 02:29:02;;;;;;;2.28;1.08;;;17.60;44.20;;;;;;5001284;28;20050;-45
2022/07/28 02:31:34;;;;;;;3.22;0.82;;;17.50;44.40;;;;;;5001382;28;20064;-46
2022/07/28 02:34:04;;;;;;;3.33;0.90;;;17.50;44.50;;;;;;5002490;28;20502;-44
2022/07/28 02:36:37;;;;;;;1.95;0.80;;;17.50;44.60;;;;;;4999553;28;20405;-43
2022/07/28 02:39:08;;;;;;;3.03;0.95;;;17.40;44.60;;;;;;5001564;28;20053;-44
2022/07/28 02:41:40;;;;;;;5.30;0.80;;;17.40;44.70;;;;;;5002614;28;20057;-45
2022/07/28 02:44:12;;;;;;;3.42;1.00;;;17.40;44.70;;;;;;5001807;28;20046;-47
2022/07/28 02:46:44;;;;;;;2.90;1.15;;;17.40;44.70;;;;;;5000037;28;20062;-46
2022/07/28 02:49:16;;;;;;;1.55;0.75;;;17.30;44.80;;;;;;5003700;28;20057;-44
2022/07/28 02:51:46;;;;;;;2.47;1.02;;;17.30;44.90;;;;;;5002504;28;20062;-43
2022/07/28 02:54:16;;;;;;;3.38;1.10;;;17.30;45.00;;;;;;5003713;28;20064;-43
2022/07/28 02:56:46;;;;;;;2.58;0.82;;;17.30;44.90;;;;;;5000310;28;20064;-45
2022/07/28 02:59:14;;;;;;;2.75;1.08;;;17.30;44.90;;;;;;4997192;28;20482;-47
2022/07/28 03:01:43;;;;;;;1.70;0.80;;;17.20;45.00;;;;;;5001219;28;20061;-42
2022/07/28 03:04:12;;;;;;;3.95;1.02;;;17.20;45.10;;;;;;5002249;28;20050;-44
2022/07/28 03:06:41;;;;;;;5.82;1.13;;;17.20;45.10;;;;;;4999762;28;20056;-43
2022/07/28 03:09:10;;;;;;;1.77;0.88;;;17.20;45.20;;;;;;5003829;28;20061;-44
2022/07/28 03:11:51;;;;;;;3.08;0.88;;;17.20;45.20;;;;;;4999878;28;20061;-44
2022/07/28 03:14:18;;;;;;;2.72;0.82;;;17.10;45.20;;;;;;4996925;28;20065;-43
2022/07/28 03:16:46;;;;;;;1.88;0.93;;;17.10;45.00;;;;;;5003811;28;20057;-45
2022/07/28 03:19:14;;;;;;;3.28;1.00;;;17.10;45.00;;;;;;5000763;28;20065;-43
2022/07/28 03:21:41;;;;;;;2.58;0.80;;;17.10;45.10;;;;;;5003359;28;20050;-44
2022/07/28 03:24:11;;;;;;;4.10;1.10;;;17.10;45.10;;;;;;5003227;28;20061;-42
2022/07/28 03:26:43;;;;;;;1.23;0.70;;;17.10;45.30;;;;;;5000755;28;20065;-46
2022/07/28 03:29:11;;;;;;;3.38;1.08;;;17.00;45.30;;;;;;5000212;28;20053;-46
2022/07/28 03:31:41;;;;;;;2.28;1.02;;;17.00;45.90;;;;;;5001114;28;20050;-46
2022/07/28 03:34:10;;;;;;;2.08;0.85;;;17.00;45.40;;;;;;5002694;28;20058;-45
2022/07/28 03:36:42;;;;;;;2.22;0.80;;;17.00;45.60;;;;;;5003115;28;20061;-45
2022/07/28 03:39:12;;;;;;;2.95;0.80;;;17.00;45.60;;;;;;5000340;28;20069;-42
2022/07/28 03:41:43;;;;;;;3.78;0.80;;;16.90;45.60;;;;;;5000690;28;20065;-48
2022/07/28 03:44:11;;;;;;;2.75;1.10;;;16.90;45.70;;;;;;5000725;28;20054;-42
2022/07/28 03:46:43;;;;;;;3.10;1.05;;;16.80;45.70;;;;;;5002106;28;20060;-42
2022/07/28 03:49:11;;;;;;;3.03;0.88;;;16.80;45.90;;;;;;5002378;28;20393;-45
2022/07/28 03:51:38;;;;;;;2.80;1.00;;;16.80;45.80;;;;;;4997959;28;20065;-46
2022/07/28 03:54:05;;;;;;;3.53;0.93;;;16.80;45.90;;;;;;5000541;28;20046;-46
2022/07/28 03:56:34;;;;;;;4.53;1.00;;;16.80;46.00;;;;;;5001448;28;20046;-45
2022/07/28 03:59:01;;;;;;;2.88;1.10;;;16.70;46.00;;;;;;4999731;28;20050;-44
2022/07/28 04:01:28;;;;;;;2.63;0.73;;;16.70;46.10;;;;;;5001055;28;20065;-46
2022/07/28 04:03:55;;;;;;;1.85;0.90;;;16.70;46.20;;;;;;5003198;28;20058;-42
2022/07/28 04:06:22;;;;;;;2.47;1.13;;;16.70;46.20;;;;;;5002141;28;20513;-45
2022/07/28 04:08:49;;;;;;;3.03;0.80;;;16.60;46.20;;;;;;5000134;28;20060;-43
2022/07/28 04:11:17;;;;;;;3.25;1.00;;;16.60;46.40;;;;;;4998341;28;20052;-42
2022/07/28 04:13:45;;;;;;;2.22;1.00;;;16.60;46.50;;;;;;4999779;28;20062;-45
2022/07/28 04:16:12;;;;;;;2.40;1.02;;;16.60;46.70;;;;;;4984493;28;21919;-44
2022/07/28 04:18:39;;;;;;;0.95;0.65;;;16.60;46.80;;;;;;4976460;28;20430;-42
2022/07/28 04:21:07;;;;;;;2.20;0.90;;;16.60;47.40;;;;;;4981721;28;20093;-46
2022/07/28 04:23:34;;;;;;;4.05;0.93;;;16.60;46.90;;;;;;4971913;28;20050;-46
2022/07/28 04:26:01;;;;;;;2.65;0.80;;;16.60;47.50;;;;;;4976828;28;20057;-46
2022/07/28 04:28:28;;;;;;;5.13;1.17;;;16.60;47.00;;;;;;4978900;28;20058;-45
2022/07/28 04:30:57;;;;;;;2.65;0.80;;;16.60;46.90;;;;;;4979424;28;20062;-43
2022/07/28 04:33:24;;;;;;;3.65;0.80;;;16.60;47.00;;;;;;4982507;28;20069;-43
2022/07/28 04:35:52;;;;;;;3.10;0.98;;;16.70;47.00;;;;;;4979995;28;20062;-47
2022/07/28 04:38:19;;;;;;;3.10;1.05;;;16.70;46.90;;;;;;4978639;28;20073;-47
2022/07/28 04:40:47;;;;;;;1.92;0.90;;;16.70;46.90;;;;;;4979078;28;20054;-45
2022/07/28 04:43:14;;;;;;;4.80;1.00;;;16.70;46.90;;;;;;4980273;28;20402;-45
2022/07/28 04:45:42;;;;;;;2.20;1.20;;;16.70;46.90;;;;;;4978393;28;20061;-45
2022/07/28 04:48:11;;;;;;;4.57;1.27;;;16.80;47.00;;;;;;4980535;28;20062;-42
2022/07/28 04:50:39;;;;;;;2.15;1.10;;;16.80;47.00;;;;;;4978207;28;20053;-42
2022/07/28 04:53:06;;;;;;;2.83;1.10;;;16.80;46.90;;;;;;4981476;28;20050;-46
2022/07/28 04:55:34;;;;;;;2.72;0.90;;;16.80;46.90;;;;;;4979375;28;20065;-43
2022/07/28 04:58:01;;;;;;;2.78;0.80;;;16.80;46.90;;;;;;4980454;28;20054;-44
2022/07/28 05:00:29;;;;;;;4.15;1.35;;;16.90;47.20;;;;;;4977837;28;20058;-43
2022/07/28 05:02:57;;;;;;;1.08;0.70;;;16.90;47.20;;;;;;4978811;28;20058;-46
2022/07/28 05:05:26;;;;;;;8.43;4.68;;;16.90;47.20;;;;;;4979226;28;20057;-41
2022/07/28 05:07:54;;;;;;;8.27;3.63;;;16.90;47.20;;;;;;4979480;28;20063;-43
2022/07/28 05:10:21;;;;;;;5.65;2.10;;;16.90;47.30;;;;;;4975275;28;20050;-48
2022/07/28 05:12:48;;;;;;;5.18;1.60;;;16.90;47.30;;;;;;4981140;28;20050;-43
2022/07/28 05:15:15;;;;;;;4.22;1.08;;;17.00;47.50;;;;;;4979481;28;20058;-42
2022/07/28 05:17:42;;;;;;;3.97;1.10;;;17.00;47.50;;;;;;4980222;28;20054;-44
2022/07/28 05:20:12;;;;;;;1.85;0.88;;;17.00;47.80;;;;;;4975814;28;20054;-43
2022/07/28 05:22:45;;;;;;;3.53;1.15;;;17.00;47.80;;;;;;4980502;28;20499;-45
2022/07/28 05:25:16;;;;;;;5.65;1.13;;;17.00;47.80;;;;;;4975706;28;20051;-46
2022/07/28 05:27:44;;;;;;;0.82;0.70;;;17.00;47.80;;;;;;4977408;28;20045;-44
2022/07/28 05:30:12;;;;;;;1.92;1.17;;;17.00;47.60;;;;;;4982507;28;20050;-46
2022/07/28 05:32:39;;;;;;;3.45;1.08;;;17.00;47.60;;;;;;4984819;28;20510;-44
2022/07/28 05:35:07;;;;;;;2.17;0.98;;;17.10;47.60;;;;;;4985405;28;20054;-45
2022/07/28 05:37:35;;;;;;;2.88;0.98;;;17.10;47.60;;;;;;4983001;28;20054;-46
2022/07/28 05:40:08;;;;;;;3.33;1.13;;;17.20;47.80;;;;;;4982630;28;20051;-46
2022/07/28 05:42:36;;;;;;;2.20;0.90;;;17.20;47.80;;;;;;4983219;28;20061;-42
2022/07/28 05:45:04;;;;;;;2.35;1.20;;;17.20;47.60;;;;;;4983465;28;20057;-47
2022/07/28 05:47:31;;;;;;;4.00;1.00;;;17.30;47.90;;;;;;4985504;28;20058;-44
2022/07/28 05:50:01;;;;;;;3.85;1.00;;;17.30;47.80;;;;;;4980632;28;20074;-42
2022/07/28 05:52:28;;;;;;;3.40;0.90;;;17.30;48.00;;;;;;4982292;28;20058;-44
2022/07/28 05:54:56;;;;;;;2.85;1.10;;;17.40;47.80;;;;;;4985397;28;20062;-46
2022/07/28 05:57:25;;;;;;;3.95;1.38;;;17.40;47.80;;;;;;4979873;28;20050;-44
2022/07/28 05:59:52;;;;;;;2.03;1.00;;;17.50;47.80;;;;;;4981685;28;20066;-46
2022/07/28 06:02:19;;;;;;;4.30;0.98;;;17.50;47.90;;;;;;4980055;28;20054;-45
2022/07/28 06:04:47;;;;;;;2.38;1.17;;;17.60;48.00;;;;;;4984315;28;20062;-45
2022/07/28 06:07:14;;;;;;;1.25;0.93;;;17.70;48.00;;;;;;4985674;28;20065;-42
2022/07/28 06:09:41;;;;;;;2.03;0.90;;;17.70;48.00;;;;;;4980653;28;20054;-45
2022/07/28 06:12:08;;;;;;;2.97;1.00;;;17.80;47.90;;;;;;4984826;28;20054;-42
2022/07/28 06:14:37;;;;;;;2.92;1.33;;;17.90;47.80;;;;;;4981203;28;20418;-45
2022/07/28 06:17:04;;;;;;;1.75;0.93;;;17.90;47.90;;;;;;4983644;28;20065;-44
2022/07/28 06:19:32;;;;;;;1.77;0.85;;;18.00;47.80;;;;;;4981064;28;20054;-45
2022/07/28 06:21:59;;;;;;;3.13;1.13;;;18.10;47.70;;;;;;4983283;28;20528;-42
2022/07/28 06:24:26;;;;;;;2.75;1.10;;;18.20;47.60;;;;;;4981781;28;20058;-43
2022/07/28 06:26:54;;;;;;;2.70;0.90;;;18.20;47.60;;;;;;4981701;28;20414;-44
2022/07/28 06:29:21;;;;;;;6.10;1.10;;;18.30;47.50;;;;;;4982854;28;20065;-42
2022/07/28 06:31:50;;;;;;;2.13;0.82;;;18.40;47.50;;;;;;4980874;28;20498;-42
2022/07/28 06:34:17;;;;;;;4.53;1.42;;;18.40;47.30;;;;;;4983223;28;20502;-44
2022/07/28 06:36:44;;;;;;;7.68;1.20;;;18.50;47.40;;;;;;4982689;28;20081;-46
2022/07/28 06:39:12;;;;;;;5.05;1.00;;;18.60;47.30;;;;;;4979576;28;21323;-44
2022/07/28 06:41:43;;;;;;;1.48;0.80;;;18.60;47.20;;;;;;4979468;28;20070;-42
2022/07/28 06:44:10;;;;;;;4.63;1.52;;;18.70;47.50;;;;;;4982876;28;20061;-42
2022/07/28 06:46:37;;;;;;;2.63;1.05;;;18.80;47.30;;;;;;4983068;28;20054;-41
2022/07/28 06:49:06;;;;;;;5.65;1.60;;;18.90;47.10;;;;;;4983822;28;20058;-41
2022/07/28 06:51:33;;;;;;;3.30;1.00;;;18.90;47.30;;;;;;4982845;28;20057;-45
2022/07/28 06:54:00;;;;;;;5.85;1.73;;;19.00;47.10;;;;;;4981470;28;20069;-44
2022/07/28 06:56:29;;;;;;;9.57;1.17;;;19.10;46.80;;;;;;4982792;28;20056;-43
2022/07/28 06:58:56;;;;;;;2.75;1.10;;;19.10;46.40;;;;;;4981407;28;20518;-43
2022/07/28 07:01:23;;;;;;;8.45;1.70;;;19.10;46.50;;;;;;4981093;28;20478;-41
2022/07/28 07:03:50;;;;;;;3.25;1.08;;;19.10;46.80;;;;;;4978495;28;20069;-42
2022/07/28 07:06:19;;;;;;;5.65;0.95;;;19.20;47.00;;;;;;4983721;28;20062;-43
2022/07/28 07:08:47;;;;;;;1.70;0.82;;;19.20;46.80;;;;;;4983059;28;20057;-42
2022/07/28 07:11:14;;;;;;;1.85;0.90;;;19.20;46.80;;;;;;4983223;28;20050;-42
2022/07/28 07:13:41;;;;;;;4.15;1.10;;;19.20;46.70;;;;;;4980450;28;20073;-45
2022/07/28 07:16:08;;;;;;;4.32;0.90;;;19.30;46.60;;;;;;4980139;28;20431;-43
2022/07/28 07:18:35;;;;;;;2.53;0.90;;;19.40;46.60;;;;;;4979664;28;20046;-45
2022/07/28 07:21:03;;;;;;;5.25;1.25;;;19.40;46.60;;;;;;4982481;28;20062;-43
2022/07/28 07:23:31;;;;;;;3.05;1.13;;;19.40;46.20;;;;;;4982791;28;20046;-41
2022/07/28 07:25:58;;;;;;;4.28;1.20;;;19.50;46.20;;;;;;4980467;28;20521;-44
2022/07/28 07:28:26;;;;;;;5.45;1.50;;;19.50;46.20;;;;;;4980792;28;20050;-48
2022/07/28 07:30:53;;;;;;;4.13;1.15;;;19.50;45.80;;;;;;4982263;28;20054;-45
2022/07/28 07:33:20;;;;;;;5.88;1.30;;;19.50;45.70;;;;;;4980142;28;20054;-47
2022/07/28 07:35:47;;;;;;;8.23;1.40;;;19.50;45.70;;;;;;4983087;28;20050;-43
2022/07/28 07:38:14;;;;;;;2.45;1.05;;;19.60;45.80;;;;;;4983323;28;20051;-43
2022/07/28 07:40:43;;;;;;;5.03;1.52;;;19.60;45.70;;;;;;4981527;28;20046;-46
2022/07/28 07:43:10;;;;;;;3.42;1.10;;;19.60;45.50;;;;;;4979585;28;20053;-42
2022/07/28 07:45:39;;;;;;;5.22;1.23;;;19.60;45.80;;;;;;4981843;28;20494;-43
2022/07/28 07:48:07;;;;;;;5.57;1.30;;;19.70;46.10;;;;;;4981022;28;20076;-44
2022/07/28 07:50:34;;;;;;;3.03;0.77;;;19.80;46.10;;;;;;4981558;28;20058;-41
2022/07/28 07:53:02;;;;;;;1.55;0.82;;;19.80;46.40;;;;;;4979845;28;20062;-42
2022/07/28 07:55:29;;;;;;;4.28;1.10;;;19.90;46.30;;;;;;4981929;28;21016;-42
2022/07/28 07:57:58;;;;;;;5.32;1.08;;;20.00;46.20;;;;;;4981632;28;20348;-42
2022/07/28 08:00:25;;;;;;;4.47;1.00;;;20.00;46.00;;;;;;4977081;28;20081;-43
2022/07/28 08:02:52;;;;;;;3.95;1.00;;;20.10;46.20;;;;;;4982242;28;20422;-42
2022/07/28 08:05:19;;;;;;;3.97;1.17;;;20.20;46.10;;;;;;4982092;28;20506;-43
2022/07/28 08:07:46;;;;;;;4.43;1.33;;;20.30;45.70;;;;;;4982707;28;20066;-42
2022/07/28 08:10:13;;;;;;;2.63;0.95;;;20.30;45.30;;;;;;4981318;28;20054;-45
2022/07/28 08:12:41;;;;;;;1.85;0.98;;;20.40;45.10;;;;;;4981594;28;20054;-41
2022/07/28 08:15:10;;;;;;;2.38;0.88;;;20.50;45.00;;;;;;4983151;28;20088;-43
2022/07/28 08:17:37;;;;;;;4.13;1.20;;;20.60;45.10;;;;;;4982320;28;20638;-45
2022/07/28 08:20:05;;;;;;;4.68;1.10;;;20.60;44.00;;;;;;4979612;28;20057;-45
2022/07/28 08:22:33;;;;;;;4.63;1.05;;;20.70;44.00;;;;;;4982210;28;20058;-42
2022/07/28 08:25:00;;;;;;;4.65;1.13;;;20.80;43.70;;;;;;4978561;28;20054;-43
2022/07/28 08:27:27;;;;;;;4.43;1.40;;;20.80;43.70;;;;;;4979618;28;20061;-44
2022/07/28 08:29:54;;;;;;;3.42;1.15;;;20.90;43.70;;;;;;4979182;28;20823;-48
2022/07/28 08:32:23;;;;;;;4.10;1.10;;;21.00;43.60;;;;;;4981934;28;20050;-45
2022/07/28 08:34:50;;;;;;;5.82;1.23;;;21.00;43.90;;;;;;4982466;28;20065;-42
2022/07/28 08:37:17;;;;;;;9.55;1.40;;;21.00;43.40;;;;;;4981894;28;20058;-45
2022/07/28 08:39:45;;;;;;;5.60;0.95;;;21.10;43.40;;;;;;4979824;28;20054;-44
2022/07/28 08:42:15;;;;;;;5.45;1.05;;;21.20;43.00;;;;;;4981076;28;20054;-43
2022/07/28 08:44:49;;;;;;;3.25;0.93;;;21.30;42.90;;;;;;4978932;28;20057;-48
2022/07/28 08:47:19;;;;;;;3.28;1.00;;;21.30;43.40;;;;;;4983368;28;20649;-45
2022/07/28 08:49:48;;;;;;;5.25;1.48;;;21.40;43.30;;;;;;4981358;28;20050;-43
2022/07/28 08:52:19;;;;;;;2.85;1.05;;;21.40;43.10;;;;;;4982442;28;20050;-46
2022/07/28 08:54:49;;;;;;;3.15;0.98;;;21.50;43.10;;;;;;4983399;28;20062;-45
2022/07/28 08:57:20;;;;;;;2.67;1.10;;;21.60;43.20;;;;;;4981792;28;20058;-43
2022/07/28 08:59:49;;;;;;;3.08;1.05;;;21.70;43.30;;;;;;4979941;28;20513;-43
2022/07/28 09:02:17;;;;;;;5.50;1.00;;;21.80;43.20;;;;;;4980973;28;20050;-43
2022/07/28 09:04:45;;;;;;;8.65;1.40;;;21.80;43.00;;;;;;4983680;28;20121;-42
2022/07/28 09:07:15;;;;;;;2.75;1.00;;;21.90;43.00;;;;;;4984515;28;20066;-42
2022/07/28 09:09:43;;;;;;;4.20;1.25;;;22.00;42.90;;;;;;4984307;28;20062;-44
2022/07/28 09:12:10;;;;;;;4.40;1.00;;;22.10;42.70;;;;;;4982456;28;20530;-44
2022/07/28 09:14:37;;;;;;;3.90;1.02;;;22.10;42.10;;;;;;4985914;28;20054;-47
2022/07/28 09:17:05;;;;;;;4.03;1.13;;;22.20;42.20;;;;;;4985836;28;20058;-45
2022/07/28 09:19:33;;;;;;;2.22;0.93;;;22.30;42.30;;;;;;4985564;28;20069;-43
2022/07/28 09:22:00;;;;;;;3.92;1.00;;;22.30;42.20;;;;;;4984294;28;20058;-42
2022/07/28 09:24:38;;;;;;;3.50;1.27;;;22.40;42.10;;;;;;4985177;28;20434;-43
2022/07/28 09:27:07;;;;;;;4.03;1.25;;;22.50;41.70;;;;;;4983320;28;20077;-46
2022/07/28 09:29:36;;;;;;;3.65;1.00;;;22.60;42.10;;;;;;4980902;28;20130;-46
2022/07/28 09:32:03;;;;;;;4.57;0.82;;;22.60;42.00;;;;;;4983835;28;20053;-45
2022/07/28 09:34:41;;;;;;;4.47;1.05;;;22.70;41.80;;;;;;4981667;28;20395;-42
2022/07/28 09:37:16;;;;;;;4.57;1.27;;;22.80;40.50;;;;;;4980562;28;20050;-43
2022/07/28 09:39:46;;;;;;;9.32;1.10;;;22.80;40.00;;;;;;4982282;28;20058;-43
2022/07/28 09:42:14;;;;;;;2.92;1.10;;;22.90;39.80;;;;;;4984731;28;20073;-43
2022/07/28 09:44:41;;;;;;;5.85;1.20;;;23.00;40.40;;;;;;4982717;28;20058;-44
2022/07/28 09:47:22;;;;;;;3.42;1.10;;;23.00;40.20;;;;;;4985072;28;20062;-42
2022/07/28 09:49:50;;;;;;;1.83;0.75;;;23.10;38.30;;;;;;4983650;28;20521;-42
2022/07/28 09:52:28;;;;;;;2.97;1.35;;;23.10;39.20;;;;;;4986283;28;20704;-45
2022/07/28 09:55:08;;;;;;;4.50;0.93;;;23.20;39.60;;;;;;4984480;28;20410;-44
2022/07/28 09:57:37;;;;;;;2.35;1.02;;;23.30;38.30;;;;;;4981479;28;20061;-43
2022/07/28 10:00:08;;;;;;;3.70;0.90;;;23.30;38.90;;;;;;4982768;28;20050;-43
2022/07/28 10:02:36;;;;;;;3.97;0.75;;;23.40;38.80;;;;;;4985847;28;20054;-45
2022/07/28 10:05:03;;;;;;;3.50;1.00;;;23.40;38.90;;;;;;4984552;28;20062;-44
2022/07/28 10:07:31;;;;;;;2.65;0.73;;;23.50;38.90;;;;;;4982251;28;20058;-44
2022/07/28 10:09:59;;;;;;;1.58;0.70;;;23.60;38.90;;;;;;4981198;28;20423;-44
2022/07/28 10:12:29;;;;;;;3.22;0.70;;;23.60;38.90;;;;;;4983172;28;20486;-42
2022/07/28 10:14:59;;;;;;;3.00;0.70;;;23.70;39.00;;;;;;4983556;28;20402;-45
2022/07/28 10:17:28;;;;;;;2.97;0.90;;;23.70;38.80;;;;;;4982903;28;20058;-44
2022/07/28 10:19:57;;;;;;;4.53;1.17;;;23.80;38.20;;;;;;4982260;28;20054;-46
2022/07/28 10:22:27;;;;;;;2.10;0.98;;;23.80;37.20;;;;;;4982070;28;20506;-45
2022/07/28 10:24:56;;;;;;;3.58;0.90;;;23.80;37.60;;;;;;4983392;28;20514;-45
2022/07/28 10:27:24;;;;;;;4.57;1.17;;;23.90;38.00;;;;;;4984783;28;20065;-44
2022/07/28 10:29:58;;;;;;;2.88;0.93;;;23.90;37.70;;;;;;4981573;28;20069;-44
2022/07/28 10:32:26;;;;;;;2.60;1.00;;;24.00;38.00;;;;;;4983720;28;20057;-44
2022/07/28 10:35:00;;;;;;;2.40;0.80;;;24.00;38.10;;;;;;4980640;28;20857;-42
2022/07/28 10:37:30;;;;;;;2.65;1.00;;;24.10;38.20;;;;;;4982560;28;20050;-42
2022/07/28 10:40:02;;;;;;;4.63;0.90;;;24.10;37.80;;;;;;4982576;28;20061;-42
2022/07/28 10:42:30;;;;;;;2.13;0.70;;;24.20;38.00;;;;;;4982172;28;20061;-43
2022/07/28 10:44:59;;;;;;;4.70;1.45;;;24.20;38.10;;;;;;4981335;28;20050;-43
2022/07/28 10:47:27;;;;;;;3.38;0.90;;;24.30;38.00;;;;;;4980579;28;20058;-43
2022/07/28 10:49:55;;;;;;;2.58;0.88;;;24.40;37.80;;;;;;4982817;28;20537;-41
2022/07/28 10:52:24;;;;;;;1.48;0.82;;;24.40;38.10;;;;;;4982192;28;20050;-44
2022/07/28 10:54:59;;;;;;;6.03;0.80;;;24.50;38.10;;;;;;4985320;28;20062;-43
2022/07/28 10:57:28;;;;;;;2.08;0.80;;;24.50;37.80;;;;;;4981024;28;20070;-44
2022/07/28 11:00:07;;;;;;;2.47;0.95;;;24.60;37.70;;;;;;4981308;28;20058;-42
2022/07/28 11:02:49;;;;;;;2.03;0.82;;;24.60;37.50;;;;;;4982676;28;20501;-41
2022/07/28 11:05:30;;;;;;;2.13;0.70;;;24.70;36.80;;;;;;4983190;28;20057;-42
2022/07/28 11:07:59;;;;;;;2.65;1.00;;;24.80;36.60;;;;;;4981750;28;20490;-45
2022/07/28 11:10:28;;;;;;;5.38;1.35;;;24.80;36.00;;;;;;4977638;28;20108;-48
2022/07/28 11:12:56;;;;;;;4.70;1.10;;;24.80;35.40;;;;;;4975980;28;20050;-43
2022/07/28 11:15:36;;;;;;;1.70;0.70;;;24.90;35.70;;;;;;4980846;28;20062;-42
2022/07/28 11:18:08;;;;;;;2.88;1.13;;;25.00;36.20;;;;;;4984334;28;20058;-42
2022/07/28 11:21:06;;;;;;;6.03;1.20;;;25.00;35.50;;;;;;4981196;28;20061;-43
2022/07/28 11:23:53;;;;;;;2.45;1.00;;;25.00;35.10;;;;;;4984007;28;20053;-45
2022/07/28 11:26:36;;;;;;;5.32;1.00;;;25.10;34.80;;;;;;4980666;28;20050;-48
2022/07/28 11:29:27;;;;;;;3.53;1.23;;;25.20;35.00;;;;;;4982828;28;20545;-43
2022/07/28 11:32:00;;;;;;;8.32;0.95;;;25.20;35.40;;;;;;4971819;28;20062;-43
2022/07/28 11:34:47;;;;;;;3.45;0.90;;;25.30;35.30;;;;;;4982754;28;20074;-44
2022/07/28 11:37:15;;;;;;;6.13;1.00;;;25.40;35.20;;;;;;4981868;28;20426;-45
2022/07/28 11:39:42;;;;;;;3.17;1.00;;;25.40;34.80;;;;;;4982733;28;20061;-47
2022/07/28 11:42:26;;;;;;;5.22;1.40;;;25.50;34.70;;;;;;4983420;28;20062;-46
2022/07/28 11:44:54;;;;;;;3.65;1.17;;;25.60;35.30;;;;;;4982501;28;20050;-43
2022/07/28 11:47:24;;;;;;;4.45;1.10;;;25.60;35.30;;;;;;4983462;28;20050;-46
2022/07/28 11:50:11;;;;;;;4.13;1.00;;;25.70;35.50;;;;;;4982665;28;20058;-44
2022/07/28 11:52:39;;;;;;;7.05;1.05;;;25.80;35.40;;;;;;4982633;28;20055;-44
2022/07/28 11:55:07;;;;;;;1.42;0.80;;;25.90;35.50;;;;;;4983494;28;20073;-42
2022/07/28 11:57:40;;;;;;;2.72;0.98;;;25.90;35.50;;;;;;4983121;28;20502;-43
2022/07/28 12:00:09;;;;;;;4.20;0.80;;;26.00;35.40;;;;;;4983174;28;20061;-47
2022/07/28 12:02:40;;;;;;;1.90;0.90;;;26.00;35.30;;;;;;4982932;28;20407;-45
2022/07/28 12:05:11;;;;;;;2.58;1.00;;;26.00;34.80;;;;;;4982232;28;20058;-44
2022/07/28 12:07:41;;;;;;;1.50;0.80;;;26.10;34.80;;;;;;4980704;28;20680;-44
2022/07/28 12:10:29;;;;;;;2.78;1.25;;;26.10;34.70;;;;;;4981780;28;20229;-42
2022/07/28 12:12:57;;;;;;;3.42;1.10;;;26.20;34.60;;;;;;4981748;28;20061;-44
2022/07/28 12:15:25;;;;;;;4.63;1.20;;;26.20;35.00;;;;;;4982257;28;20058;-44
2022/07/28 12:17:54;;;;;;;3.13;1.20;;;26.20;35.50;;;;;;4982324;28;20062;-42
2022/07/28 12:20:21;;;;;;;9.32;1.33;;;26.30;35.50;;;;;;4977998;28;20046;-43
2022/07/28 12:22:56;;;;;;;4.20;1.10;;;26.40;35.50;;;;;;4979769;28;20050;-46
2022/07/28 12:25:23;;;;;;;2.58;0.98;;;26.40;34.20;;;;;;4980632;28;20491;-43
2022/07/28 12:27:50;;;;;;;1.60;1.00;;;26.50;34.90;;;;;;4979950;28;20053;-45
2022/07/28 12:30:26;;;;;;;3.25;1.00;;;26.50;35.00;;;;;;4982089;28;20521;-43
2022/07/28 12:32:55;;;;;;;8.70;0.98;;;26.60;34.60;;;;;;4983130;28;20058;-45
2022/07/28 12:35:24;;;;;;;3.95;1.30;;;26.70;34.10;;;;;;4981644;28;20138;-46
2022/07/28 12:37:51;;;;;;;6.32;1.20;;;26.70;33.60;;;;;;4982998;28;20065;-46
2022/07/28 12:40:20;;;;;;;4.90;1.30;;;26.80;33.90;;;;;;4984665;28;20053;-44
2022/07/28 12:42:53;;;;;;;3.03;1.10;;;26.80;32.60;;;;;;4985748;28;20510;-46
2022/07/28 12:45:20;;;;;;;3.10;1.15;;;26.80;32.90;;;;;;4985272;28;20130;-48
2022/07/28 12:47:48;;;;;;;3.13;1.25;;;26.90;32.90;;;;;;4986509;28;20061;-43
2022/07/28 12:50:20;;;;;;;7.00;1.38;;;26.90;32.70;;;;;;4984251;28;20069;-43
2022/07/28 12:53:06;;;;;;;5.82;1.10;;;27.00;33.90;;;;;;4985879;28;20525;-44
2022/07/28 12:55:34;;;;;;;6.28;1.20;;;27.00;32.40;;;;;;4986321;28;20066;-45
2022/07/28 12:58:02;;;;;;;3.17;1.33;;;27.10;32.20;;;;;;4983819;28;20069;-41
2022/07/28 13:00:31;;;;;;;1.88;0.95;;;27.10;32.30;;;;;;4982926;28;20518;-46
2022/07/28 13:03:00;;;;;;;5.45;1.38;;;27.20;32.30;;;;;;4985328;28;20065;-42
2022/07/28 13:08:22;;;;;;;3.25;1.08;;;27.30;32.80;;;;;;4991884;28;20065;-43
2022/07/28 13:10:50;;;;;;;2.55;0.98;;;27.40;32.90;;;;;;4985163;28;20061;-42